sensor_id;sensor_type;location;lat;lon;timestamp;pressure;altitude;pressure_sealevel;temperature
54746;BMP180;40640;48.130;11.356;2023-05-16T00:02:28;95216.00;;;11.70
54746;BMP180;40640;48.130;11.356;2023-05-16T00:06:32;95213.00;;;11.60
54746;BMP180;40640;48.130;11.356;2023-05-16T00:10:36;95221.00;;;11.50
54746;BMP180;40640;48.130;11.356;2023-05-16T00:14:39;95225.00;;;11.50
54746;BMP180;40640;48.130;11.356;2023-05-16T00:18:43;95219.00;;;11.60
54746;BMP180;40640;48.130;11.356;2023-05-16T00:22:46;95215.00;;;11.60
54746;BMP180;40640;48.130;11.356;2023-05-16T00:26:49;95211.00;;;11.60
54746;BMP180;40640;48.130;11.356;2023-05-16T00:30:52;95210.00;;;11.60
54746;BMP180;40640;48.130;11.356;2023-05-16T00:34:58;95204.00;;;11.50
54746;BMP180;40640;48.130;11.356;2023-05-16T00:39:01;95201.00;;;11.50
54746;BMP180;40640;48.130;11.356;2023-05-16T00:43:04;95206.00;;;11.60
54746;BMP180;40640;48.130;11.356;2023-05-16T00:47:08;95201.00;;;11.70
54746;BMP180;40640;48.130;11.356;2023-05-16T00:51:12;95197.00;;;11.60
54746;BMP180;40640;48.130;11.356;2023-05-16T00:55:15;95204.00;;;11.60
54746;BMP180;40640;48.130;11.356;2023-05-16T00:59:18;95190.00;;;11.50
54746;BMP180;40640;48.130;11.356;2023-05-16T01:03:21;95197.00;;;11.60
54746;BMP180;40640;48.130;11.356;2023-05-16T01:07:26;95196.00;;;11.60
54746;BMP180;40640;48.130;11.356;2023-05-16T01:11:36;95193.00;;;11.50
54746;BMP180;40640;48.130;11.356;2023-05-16T01:15:45;95195.00;;;11.60
54746;BMP180;40640;48.130;11.356;2023-05-16T01:20:03;95192.00;;;11.50
54746;BMP180;40640;48.130;11.356;2023-05-16T01:24:13;95187.00;;;11.50
54746;BMP180;40640;48.130;11.356;2023-05-16T01:28:18;95193.00;;;11.50
54746;BMP180;40640;48.130;11.356;2023-05-16T01:32:23;95186.00;;;11.40
54746;BMP180;40640;48.130;11.356;2023-05-16T01:36:32;95181.00;;;11.60
54746;BMP180;40640;48.130;11.356;2023-05-16T01:40:45;95170.00;;;11.50
54746;BMP180;40640;48.130;11.356;2023-05-16T01:44:56;95164.00;;;11.50
54746;BMP180;40640;48.130;11.356;2023-05-16T01:49:07;95174.00;;;11.40
54746;BMP180;40640;48.130;11.356;2023-05-16T01:53:19;95165.00;;;11.30
54746;BMP180;40640;48.130;11.356;2023-05-16T01:57:26;95169.00;;;11.20
54746;BMP180;40640;48.130;11.356;2023-05-16T02:01:31;95172.00;;;11.00
54746;BMP180;40640;48.130;11.356;2023-05-16T02:05:34;95160.00;;;11.00
54746;BMP180;40640;48.130;11.356;2023-05-16T02:09:37;95167.00;;;11.10
54746;BMP180;40640;48.130;11.356;2023-05-16T02:13:41;95168.00;;;11.00
54746;BMP180;40640;48.130;11.356;2023-05-16T02:17:45;95170.00;;;11.00
54746;BMP180;40640;48.130;11.356;2023-05-16T02:21:49;95176.00;;;11.10
54746;BMP180;40640;48.130;11.356;2023-05-16T02:25:52;95172.00;;;11.00
54746;BMP180;40640;48.130;11.356;2023-05-16T02:29:56;95168.00;;;11.10
54746;BMP180;40640;48.130;11.356;2023-05-16T02:34:01;95181.00;;;11.00
54746;BMP180;40640;48.130;11.356;2023-05-16T02:38:04;95179.00;;;10.90
54746;BMP180;40640;48.130;11.356;2023-05-16T02:42:07;95179.00;;;10.80
54746;BMP180;40640;48.130;11.356;2023-05-16T02:46:20;95183.00;;;10.80
54746;BMP180;40640;48.130;11.356;2023-05-16T02:50:25;95176.00;;;10.90
54746;BMP180;40640;48.130;11.356;2023-05-16T02:54:28;95175.00;;;10.90
54746;BMP180;40640;48.130;11.356;2023-05-16T02:58:30;95171.00;;;10.90
54746;BMP180;40640;48.130;11.356;2023-05-16T03:02:33;95170.00;;;10.90
54746;BMP180;40640;48.130;11.356;2023-05-16T03:06:38;95166.00;;;10.90
54746;BMP180;40640;48.130;11.356;2023-05-16T03:10:41;95170.00;;;10.90
54746;BMP180;40640;48.130;11.356;2023-05-16T03:14:44;95169.00;;;10.90
54746;BMP180;40640;48.130;11.356;2023-05-16T03:18:47;95156.00;;;10.90
54746;BMP180;40640;48.130;11.356;2023-05-16T03:22:51;95165.00;;;10.90
54746;BMP180;40640;48.130;11.356;2023-05-16T03:26:54;95162.00;;;10.90
54746;BMP180;40640;48.130;11.356;2023-05-16T03:30:57;95165.00;;;10.90
54746;BMP180;40640;48.130;11.356;2023-05-16T03:34:59;95163.00;;;10.90
54746;BMP180;40640;48.130;11.356;2023-05-16T03:39:04;95166.00;;;10.90
54746;BMP180;40640;48.130;11.356;2023-05-16T03:43:07;95170.00;;;10.90
54746;BMP180;40640;48.130;11.356;2023-05-16T03:47:10;95172.00;;;11.00
54746;BMP180;40640;48.130;11.356;2023-05-16T03:51:12;95178.00;;;11.00
54746;BMP180;40640;48.130;11.356;2023-05-16T03:55:17;95169.00;;;11.00
54746;BMP180;40640;48.130;11.356;2023-05-16T03:59:19;95168.00;;;10.90
54746;BMP180;40640;48.130;11.356;2023-05-16T04:03:22;95160.00;;;10.90
54746;BMP180;40640;48.130;11.356;2023-05-16T04:07:29;95163.00;;;10.90
54746;BMP180;40640;48.130;11.356;2023-05-16T04:11:33;95170.00;;;11.00
54746;BMP180;40640;48.130;11.356;2023-05-16T04:15:36;95173.00;;;11.00
54746;BMP180;40640;48.130;11.356;2023-05-16T04:19:39;95175.00;;;11.00
54746;BMP180;40640;48.130;11.356;2023-05-16T04:23:42;95171.00;;;11.00
54746;BMP180;40640;48.130;11.356;2023-05-16T04:27:46;95163.00;;;11.00
54746;BMP180;40640;48.130;11.356;2023-05-16T04:31:49;95165.00;;;11.10
54746;BMP180;40640;48.130;11.356;2023-05-16T04:35:52;95162.00;;;11.00
54746;BMP180;40640;48.130;11.356;2023-05-16T04:39:55;95168.00;;;11.10
54746;BMP180;40640;48.130;11.356;2023-05-16T04:44:01;95155.00;;;11.10
54746;BMP180;40640;48.130;11.356;2023-05-16T04:48:05;95161.00;;;11.10
54746;BMP180;40640;48.130;11.356;2023-05-16T04:52:08;95168.00;;;11.10
54746;BMP180;40640;48.130;11.356;2023-05-16T04:56:11;95164.00;;;11.10
54746;BMP180;40640;48.130;11.356;2023-05-16T05:00:16;95174.00;;;11.00
54746;BMP180;40640;48.130;11.356;2023-05-16T05:04:19;95182.00;;;11.00
54746;BMP180;40640;48.130;11.356;2023-05-16T05:08:23;95180.00;;;11.10
54746;BMP180;40640;48.130;11.356;2023-05-16T05:12:25;95188.00;;;11.30
54746;BMP180;40640;48.130;11.356;2023-05-16T05:16:30;95183.00;;;11.40
54746;BMP180;40640;48.130;11.356;2023-05-16T05:20:33;95183.00;;;11.60
54746;BMP180;40640;48.130;11.356;2023-05-16T05:24:36;95193.00;;;11.80
54746;BMP180;40640;48.130;11.356;2023-05-16T05:28:39;95187.00;;;11.90
54746;BMP180;40640;48.130;11.356;2023-05-16T05:32:50;95190.00;;;12.00
54746;BMP180;40640;48.130;11.356;2023-05-16T05:36:53;95186.00;;;12.10
54746;BMP180;40640;48.130;11.356;2023-05-16T05:40:57;95183.00;;;12.30
54746;BMP180;40640;48.130;11.356;2023-05-16T05:44:59;95174.00;;;12.40
54746;BMP180;40640;48.130;11.356;2023-05-16T05:49:04;95182.00;;;12.50
54746;BMP180;40640;48.130;11.356;2023-05-16T05:53:07;95164.00;;;12.40
54746;BMP180;40640;48.130;11.356;2023-05-16T05:57:10;95170.00;;;12.30
54746;BMP180;40640;48.130;11.356;2023-05-16T06:01:12;95176.00;;;12.30
54746;BMP180;40640;48.130;11.356;2023-05-16T06:05:17;95175.00;;;12.20
54746;BMP180;40640;48.130;11.356;2023-05-16T06:09:20;95175.00;;;12.30
54746;BMP180;40640;48.130;11.356;2023-05-16T06:13:23;95176.00;;;12.30
54746;BMP180;40640;48.130;11.356;2023-05-16T06:17:25;95172.00;;;12.40
54746;BMP180;40640;48.130;11.356;2023-05-16T06:21:30;95167.00;;;12.50
54746;BMP180;40640;48.130;11.356;2023-05-16T06:25:33;95164.00;;;12.50
54746;BMP180;40640;48.130;11.356;2023-05-16T06:29:36;95164.00;;;12.50
54746;BMP180;40640;48.130;11.356;2023-05-16T06:33:39;95165.00;;;12.50
54746;BMP180;40640;48.130;11.356;2023-05-16T06:37:43;95167.00;;;12.40
54746;BMP180;40640;48.130;11.356;2023-05-16T06:41:46;95179.00;;;12.40
54746;BMP180;40640;48.130;11.356;2023-05-16T06:45:50;95171.00;;;12.40
54746;BMP180;40640;48.130;11.356;2023-05-16T06:49:53;95169.00;;;12.40
54746;BMP180;40640;48.130;11.356;2023-05-16T06:53:57;95170.00;;;12.50
54746;BMP180;40640;48.130;11.356;2023-05-16T06:58:02;95165.00;;;12.60
54746;BMP180;40640;48.130;11.356;2023-05-16T07:02:05;95171.00;;;12.80
54746;BMP180;40640;48.130;11.356;2023-05-16T07:06:08;95183.00;;;12.90
54746;BMP180;40640;48.130;11.356;2023-05-16T07:10:12;95181.00;;;13.10
54746;BMP180;40640;48.130;11.356;2023-05-16T07:14:16;95191.00;;;13.40
54746;BMP180;40640;48.130;11.356;2023-05-16T07:18:19;95176.00;;;13.70
54746;BMP180;40640;48.130;11.356;2023-05-16T07:22:22;95187.00;;;13.90
54746;BMP180;40640;48.130;11.356;2023-05-16T07:26:26;95188.00;;;14.10
54746;BMP180;40640;48.130;11.356;2023-05-16T07:30:29;95184.00;;;14.10
54746;BMP180;40640;48.130;11.356;2023-05-16T07:34:32;95175.00;;;14.10
54746;BMP180;40640;48.130;11.356;2023-05-16T07:38:34;95202.00;;;14.10
54746;BMP180;40640;48.130;11.356;2023-05-16T07:42:39;95201.00;;;13.90
54746;BMP180;40640;48.130;11.356;2023-05-16T07:46:42;95193.00;;;13.90
54746;BMP180;40640;48.130;11.356;2023-05-16T07:50:46;95197.00;;;13.80
54746;BMP180;40640;48.130;11.356;2023-05-16T07:54:49;95209.00;;;13.70
54746;BMP180;40640;48.130;11.356;2023-05-16T07:58:53;95218.00;;;13.60
54746;BMP180;40640;48.130;11.356;2023-05-16T08:02:56;95217.00;;;13.40
54746;BMP180;40640;48.130;11.356;2023-05-16T08:07:00;95213.00;;;13.30
54746;BMP180;40640;48.130;11.356;2023-05-16T08:11:03;95204.00;;;13.20
54746;BMP180;40640;48.130;11.356;2023-05-16T08:15:09;95217.00;;;13.20
54746;BMP180;40640;48.130;11.356;2023-05-16T08:19:12;95220.00;;;13.20
54746;BMP180;40640;48.130;11.356;2023-05-16T08:23:15;95226.00;;;13.10
54746;BMP180;40640;48.130;11.356;2023-05-16T08:27:18;95232.00;;;13.10
54746;BMP180;40640;48.130;11.356;2023-05-16T08:31:22;95225.00;;;13.00
54746;BMP180;40640;48.130;11.356;2023-05-16T08:35:25;95231.00;;;12.90
54746;BMP180;40640;48.130;11.356;2023-05-16T08:39:28;95232.00;;;12.90
54746;BMP180;40640;48.130;11.356;2023-05-16T08:43:32;95227.00;;;12.90
54746;BMP180;40640;48.130;11.356;2023-05-16T08:47:38;95228.00;;;12.90
54746;BMP180;40640;48.130;11.356;2023-05-16T08:51:42;95235.00;;;12.80
54746;BMP180;40640;48.130;11.356;2023-05-16T08:55:46;95237.00;;;12.80
54746;BMP180;40640;48.130;11.356;2023-05-16T08:59:49;95235.00;;;12.80
54746;BMP180;40640;48.130;11.356;2023-05-16T09:03:56;95232.00;;;12.80
54746;BMP180;40640;48.130;11.356;2023-05-16T09:07:59;95223.00;;;12.80
54746;BMP180;40640;48.130;11.356;2023-05-16T09:12:02;95220.00;;;13.00
54746;BMP180;40640;48.130;11.356;2023-05-16T09:16:10;95215.00;;;13.20
54746;BMP180;40640;48.130;11.356;2023-05-16T09:20:16;95197.00;;;13.30
54746;BMP180;40640;48.130;11.356;2023-05-16T09:24:24;95205.00;;;13.50
54746;BMP180;40640;48.130;11.356;2023-05-16T09:28:27;95214.00;;;13.70
54746;BMP180;40640;48.130;11.356;2023-05-16T09:32:30;95204.00;;;13.90
54746;BMP180;40640;48.130;11.356;2023-05-16T09:36:34;95224.00;;;14.20
54746;BMP180;40640;48.130;11.356;2023-05-16T09:40:39;95222.00;;;14.40
54746;BMP180;40640;48.130;11.356;2023-05-16T09:44:45;95219.00;;;14.60
54746;BMP180;40640;48.130;11.356;2023-05-16T09:48:50;95230.00;;;14.70
54746;BMP180;40640;48.130;11.356;2023-05-16T09:52:55;95225.00;;;14.50
54746;BMP180;40640;48.130;11.356;2023-05-16T09:56:59;95219.00;;;14.20
54746;BMP180;40640;48.130;11.356;2023-05-16T10:01:05;95225.00;;;14.10
54746;BMP180;40640;48.130;11.356;2023-05-16T10:05:13;95228.00;;;14.10
54746;BMP180;40640;48.130;11.356;2023-05-16T10:09:19;95226.00;;;14.00
54746;BMP180;40640;48.130;11.356;2023-05-16T10:13:25;95228.00;;;13.80
54746;BMP180;40640;48.130;11.356;2023-05-16T10:17:31;95236.00;;;13.80
54746;BMP180;40640;48.130;11.356;2023-05-16T10:21:36;95241.00;;;13.70
54746;BMP180;40640;48.130;11.356;2023-05-16T10:25:42;95235.00;;;13.60
54746;BMP180;40640;48.130;11.356;2023-05-16T10:29:46;95239.00;;;13.50
54746;BMP180;40640;48.130;11.356;2023-05-16T10:33:56;95244.00;;;13.30
54746;BMP180;40640;48.130;11.356;2023-05-16T10:37:59;95251.00;;;13.30
54746;BMP180;40640;48.130;11.356;2023-05-16T10:42:05;95241.00;;;13.30
54746;BMP180;40640;48.130;11.356;2023-05-16T10:46:09;95243.00;;;13.40
54746;BMP180;40640;48.130;11.356;2023-05-16T10:50:12;95238.00;;;13.50
54746;BMP180;40640;48.130;11.356;2023-05-16T10:54:18;95253.00;;;13.40
54746;BMP180;40640;48.130;11.356;2023-05-16T10:58:39;95260.00;;;13.40
54746;BMP180;40640;48.130;11.356;2023-05-16T11:02:42;95252.00;;;13.40
54746;BMP180;40640;48.130;11.356;2023-05-16T11:06:50;95259.00;;;13.40
54746;BMP180;40640;48.130;11.356;2023-05-16T11:15:31;95252.00;;;13.40
54746;BMP180;40640;48.130;11.356;2023-05-16T11:19:39;95249.00;;;13.30
54746;BMP180;40640;48.130;11.356;2023-05-16T11:23:43;95235.00;;;13.30
54746;BMP180;40640;48.130;11.356;2023-05-16T11:27:46;95233.00;;;13.30
54746;BMP180;40640;48.130;11.356;2023-05-16T11:31:51;95236.00;;;13.30
54746;BMP180;40640;48.130;11.356;2023-05-16T11:36:05;95232.00;;;13.40
54746;BMP180;40640;48.130;11.356;2023-05-16T11:40:12;95244.00;;;13.40
54746;BMP180;40640;48.130;11.356;2023-05-16T11:44:16;95246.00;;;13.40
54746;BMP180;40640;48.130;11.356;2023-05-16T11:48:22;95245.00;;;13.30
54746;BMP180;40640;48.130;11.356;2023-05-16T11:52:37;95238.00;;;13.30
54746;BMP180;40640;48.130;11.356;2023-05-16T11:56:40;95239.00;;;13.30
54746;BMP180;40640;48.130;11.356;2023-05-16T12:00:47;95246.00;;;13.20
54746;BMP180;40640;48.130;11.356;2023-05-16T12:04:51;95234.00;;;13.20
54746;BMP180;40640;48.130;11.356;2023-05-16T12:08:54;95227.00;;;13.20
54746;BMP180;40640;48.130;11.356;2023-05-16T12:12:57;95222.00;;;13.40
54746;BMP180;40640;48.130;11.356;2023-05-16T12:17:00;95218.00;;;13.70
54746;BMP180;40640;48.130;11.356;2023-05-16T12:21:06;95213.00;;;14.20
54746;BMP180;40640;48.130;11.356;2023-05-16T12:25:26;95232.00;;;14.70
54746;BMP180;40640;48.130;11.356;2023-05-16T12:29:30;95220.00;;;15.10
54746;BMP180;40640;48.130;11.356;2023-05-16T12:33:36;95222.00;;;15.30
54746;BMP180;40640;48.130;11.356;2023-05-16T12:37:42;95214.00;;;15.30
54746;BMP180;40640;48.130;11.356;2023-05-16T12:41:45;95217.00;;;15.30
54746;BMP180;40640;48.130;11.356;2023-05-16T12:45:49;95215.00;;;15.20
54746;BMP180;40640;48.130;11.356;2023-05-16T12:49:53;95209.00;;;15.40
54746;BMP180;40640;48.130;11.356;2023-05-16T12:54:06;95224.00;;;15.70
54746;BMP180;40640;48.130;11.356;2023-05-16T12:58:13;95210.00;;;16.00
54746;BMP180;40640;48.130;11.356;2023-05-16T13:02:17;95212.00;;;16.30
54746;BMP180;40640;48.130;11.356;2023-05-16T13:06:20;95206.00;;;16.60
54746;BMP180;40640;48.130;11.356;2023-05-16T13:10:24;95216.00;;;17.10
54746;BMP180;40640;48.130;11.356;2023-05-16T13:14:28;95210.00;;;17.60
54746;BMP180;40640;48.130;11.356;2023-05-16T13:18:31;95223.00;;;17.60
54746;BMP180;40640;48.130;11.356;2023-05-16T13:22:34;95233.00;;;17.40
54746;BMP180;40640;48.130;11.356;2023-05-16T13:26:39;95230.00;;;17.50
54746;BMP180;40640;48.130;11.356;2023-05-16T13:30:42;95228.00;;;16.80
54746;BMP180;40640;48.130;11.356;2023-05-16T13:34:44;95243.00;;;16.20
54746;BMP180;40640;48.130;11.356;2023-05-16T13:38:47;95241.00;;;15.90
54746;BMP180;40640;48.130;11.356;2023-05-16T13:42:52;95240.00;;;15.80
54746;BMP180;40640;48.130;11.356;2023-05-16T13:46:55;95252.00;;;15.60
54746;BMP180;40640;48.130;11.356;2023-05-16T13:50:58;95249.00;;;15.50
54746;BMP180;40640;48.130;11.356;2023-05-16T13:55:01;95255.00;;;15.10
54746;BMP180;40640;48.130;11.356;2023-05-16T13:59:05;95234.00;;;14.90
54746;BMP180;40640;48.130;11.356;2023-05-16T14:03:11;95234.00;;;14.60
54746;BMP180;40640;48.130;11.356;2023-05-16T14:07:14;95241.00;;;14.50
54746;BMP180;40640;48.130;11.356;2023-05-16T14:11:17;95239.00;;;14.30
54746;BMP180;40640;48.130;11.356;2023-05-16T14:15:24;95247.00;;;14.10
54746;BMP180;40640;48.130;11.356;2023-05-16T14:19:28;95254.00;;;13.90
54746;BMP180;40640;48.130;11.356;2023-05-16T14:23:31;95257.00;;;13.80
54746;BMP180;40640;48.130;11.356;2023-05-16T14:27:35;95272.00;;;13.70
54746;BMP180;40640;48.130;11.356;2023-05-16T14:31:39;95269.00;;;13.60
54746;BMP180;40640;48.130;11.356;2023-05-16T14:35:42;95265.00;;;13.60
54746;BMP180;40640;48.130;11.356;2023-05-16T14:39:45;95269.00;;;13.60
54746;BMP180;40640;48.130;11.356;2023-05-16T14:43:51;95273.00;;;13.70
54746;BMP180;40640;48.130;11.356;2023-05-16T14:47:55;95274.00;;;13.60
54746;BMP180;40640;48.130;11.356;2023-05-16T14:51:58;95290.00;;;13.50
54746;BMP180;40640;48.130;11.356;2023-05-16T14:56:01;95281.00;;;13.50
54746;BMP180;40640;48.130;11.356;2023-05-16T15:00:05;95288.00;;;13.60
54746;BMP180;40640;48.130;11.356;2023-05-16T15:04:13;95292.00;;;13.50
54746;BMP180;40640;48.130;11.356;2023-05-16T15:08:15;95286.00;;;13.50
54746;BMP180;40640;48.130;11.356;2023-05-16T15:12:18;95297.00;;;13.40
54746;BMP180;40640;48.130;11.356;2023-05-16T15:16:22;95306.00;;;13.40
54746;BMP180;40640;48.130;11.356;2023-05-16T15:20:26;95294.00;;;13.20
54746;BMP180;40640;48.130;11.356;2023-05-16T15:24:30;95306.00;;;13.10
54746;BMP180;40640;48.130;11.356;2023-05-16T15:28:32;95314.00;;;13.10
54746;BMP180;40640;48.130;11.356;2023-05-16T15:32:35;95309.00;;;13.00
54746;BMP180;40640;48.130;11.356;2023-05-16T15:36:40;95315.00;;;13.00
54746;BMP180;40640;48.130;11.356;2023-05-16T15:40:42;95317.00;;;12.90
54746;BMP180;40640;48.130;11.356;2023-05-16T15:44:45;95320.00;;;12.90
54746;BMP180;40640;48.130;11.356;2023-05-16T15:48:48;95325.00;;;12.80
54746;BMP180;40640;48.130;11.356;2023-05-16T15:52:53;95316.00;;;12.70
54746;BMP180;40640;48.130;11.356;2023-05-16T15:56:58;95323.00;;;12.70
54746;BMP180;40640;48.130;11.356;2023-05-16T16:01:01;95330.00;;;12.80
54746;BMP180;40640;48.130;11.356;2023-05-16T16:05:09;95326.00;;;12.70
54746;BMP180;40640;48.130;11.356;2023-05-16T16:09:13;95319.00;;;12.70
54746;BMP180;40640;48.130;11.356;2023-05-16T16:13:17;95331.00;;;12.70
54746;BMP180;40640;48.130;11.356;2023-05-16T16:17:20;95315.00;;;12.70
54746;BMP180;40640;48.130;11.356;2023-05-16T16:21:23;95334.00;;;12.70
54746;BMP180;40640;48.130;11.356;2023-05-16T16:25:27;95342.00;;;12.70
54746;BMP180;40640;48.130;11.356;2023-05-16T16:29:31;95338.00;;;12.70
54746;BMP180;40640;48.130;11.356;2023-05-16T16:33:34;95349.00;;;12.70
54746;BMP180;40640;48.130;11.356;2023-05-16T16:37:36;95346.00;;;12.60
54746;BMP180;40640;48.130;11.356;2023-05-16T16:41:41;95348.00;;;12.50
54746;BMP180;40640;48.130;11.356;2023-05-16T16:45:44;95346.00;;;12.50
54746;BMP180;40640;48.130;11.356;2023-05-16T16:49:46;95355.00;;;12.50
54746;BMP180;40640;48.130;11.356;2023-05-16T16:53:49;95356.00;;;12.30
54746;BMP180;40640;48.130;11.356;2023-05-16T16:57:53;95358.00;;;12.30
54746;BMP180;40640;48.130;11.356;2023-05-16T17:01:56;95362.00;;;12.30
54746;BMP180;40640;48.130;11.356;2023-05-16T17:05:59;95371.00;;;12.30
54746;BMP180;40640;48.130;11.356;2023-05-16T17:10:02;95364.00;;;12.30
54746;BMP180;40640;48.130;11.356;2023-05-16T17:14:07;95370.00;;;12.30
54746;BMP180;40640;48.130;11.356;2023-05-16T17:18:11;95378.00;;;12.30
54746;BMP180;40640;48.130;11.356;2023-05-16T17:22:15;95380.00;;;12.30
54746;BMP180;40640;48.130;11.356;2023-05-16T17:26:18;95389.00;;;12.30
54746;BMP180;40640;48.130;11.356;2023-05-16T17:30:22;95376.00;;;12.30
54746;BMP180;40640;48.130;11.356;2023-05-16T17:34:25;95374.00;;;12.30
54746;BMP180;40640;48.130;11.356;2023-05-16T17:38:28;95374.00;;;12.30
54746;BMP180;40640;48.130;11.356;2023-05-16T17:42:31;95380.00;;;12.30
54746;BMP180;40640;48.130;11.356;2023-05-16T17:46:35;95388.00;;;12.30
54746;BMP180;40640;48.130;11.356;2023-05-16T17:50:39;95388.00;;;12.30
54746;BMP180;40640;48.130;11.356;2023-05-16T17:54:43;95377.00;;;12.30
54746;BMP180;40640;48.130;11.356;2023-05-16T17:58:46;95387.00;;;12.40
54746;BMP180;40640;48.130;11.356;2023-05-16T18:02:51;95397.00;;;12.40
54746;BMP180;40640;48.130;11.356;2023-05-16T18:06:54;95402.00;;;12.40
54746;BMP180;40640;48.130;11.356;2023-05-16T18:10:56;95399.00;;;12.30
54746;BMP180;40640;48.130;11.356;2023-05-16T18:14:59;95398.00;;;12.30
54746;BMP180;40640;48.130;11.356;2023-05-16T18:19:03;95395.00;;;12.40
54746;BMP180;40640;48.130;11.356;2023-05-16T18:23:09;95394.00;;;12.40
54746;BMP180;40640;48.130;11.356;2023-05-16T18:27:12;95398.00;;;12.30
54746;BMP180;40640;48.130;11.356;2023-05-16T18:31:16;95395.00;;;12.30
54746;BMP180;40640;48.130;11.356;2023-05-16T18:35:20;95407.00;;;12.30
54746;BMP180;40640;48.130;11.356;2023-05-16T18:39:24;95412.00;;;12.30
54746;BMP180;40640;48.130;11.356;2023-05-16T18:43:27;95417.00;;;12.30
54746;BMP180;40640;48.130;11.356;2023-05-16T18:47:30;95418.00;;;12.30
54746;BMP180;40640;48.130;11.356;2023-05-16T18:51:34;95420.00;;;12.20
54746;BMP180;40640;48.130;11.356;2023-05-16T18:55:37;95447.00;;;12.10
54746;BMP180;40640;48.130;11.356;2023-05-16T18:59:40;95446.00;;;12.00
54746;BMP180;40640;48.130;11.356;2023-05-16T19:03:43;95450.00;;;12.00
54746;BMP180;40640;48.130;11.356;2023-05-16T19:07:47;95468.00;;;12.00
54746;BMP180;40640;48.130;11.356;2023-05-16T19:11:50;95475.00;;;11.90
54746;BMP180;40640;48.130;11.356;2023-05-16T19:15:53;95470.00;;;11.80
54746;BMP180;40640;48.130;11.356;2023-05-16T19:19:56;95463.00;;;11.70
54746;BMP180;40640;48.130;11.356;2023-05-16T19:24:00;95473.00;;;11.70
54746;BMP180;40640;48.130;11.356;2023-05-16T19:28:04;95476.00;;;11.70
54746;BMP180;40640;48.130;11.356;2023-05-16T19:32:07;95494.00;;;11.60
54746;BMP180;40640;48.130;11.356;2023-05-16T19:36:11;95500.00;;;11.50
54746;BMP180;40640;48.130;11.356;2023-05-16T19:40:15;95499.00;;;11.50
54746;BMP180;40640;48.130;11.356;2023-05-16T19:44:18;95514.00;;;11.40
54746;BMP180;40640;48.130;11.356;2023-05-16T19:48:21;95513.00;;;11.40
54746;BMP180;40640;48.130;11.356;2023-05-16T19:52:24;95522.00;;;11.40
54746;BMP180;40640;48.130;11.356;2023-05-16T19:56:28;95524.00;;;11.40
54746;BMP180;40640;48.130;11.356;2023-05-16T20:00:31;95524.00;;;11.40
54746;BMP180;40640;48.130;11.356;2023-05-16T20:04:34;95533.00;;;11.40
54746;BMP180;40640;48.130;11.356;2023-05-16T20:08:37;95534.00;;;11.30
54746;BMP180;40640;48.130;11.356;2023-05-16T20:12:42;95530.00;;;11.40
54746;BMP180;40640;48.130;11.356;2023-05-16T20:16:45;95536.00;;;11.40
54746;BMP180;40640;48.130;11.356;2023-05-16T20:20:48;95539.00;;;11.40
54746;BMP180;40640;48.130;11.356;2023-05-16T20:24:51;95544.00;;;11.40
54746;BMP180;40640;48.130;11.356;2023-05-16T20:28:55;95542.00;;;11.30
54746;BMP180;40640;48.130;11.356;2023-05-16T20:32:58;95546.00;;;11.40
54746;BMP180;40640;48.130;11.356;2023-05-16T20:37:01;95546.00;;;11.40
54746;BMP180;40640;48.130;11.356;2023-05-16T20:41:04;95549.00;;;11.40
54746;BMP180;40640;48.130;11.356;2023-05-16T20:45:09;95560.00;;;11.40
54746;BMP180;40640;48.130;11.356;2023-05-16T20:49:12;95556.00;;;11.40
54746;BMP180;40640;48.130;11.356;2023-05-16T20:53:15;95551.00;;;11.40
54746;BMP180;40640;48.130;11.356;2023-05-16T20:57:18;95547.00;;;11.30
54746;BMP180;40640;48.130;11.356;2023-05-16T21:01:23;95562.00;;;11.30
54746;BMP180;40640;48.130;11.356;2023-05-16T21:05:26;95573.00;;;11.40
54746;BMP180;40640;48.130;11.356;2023-05-16T21:09:29;95563.00;;;11.20
54746;BMP180;40640;48.130;11.356;2023-05-16T21:13:32;95560.00;;;11.20
54746;BMP180;40640;48.130;11.356;2023-05-16T21:17:36;95560.00;;;11.10
54746;BMP180;40640;48.130;11.356;2023-05-16T21:21:40;95565.00;;;11.00
54746;BMP180;40640;48.130;11.356;2023-05-16T21:25:43;95579.00;;;11.00
54746;BMP180;40640;48.130;11.356;2023-05-16T21:29:45;95585.00;;;11.00
54746;BMP180;40640;48.130;11.356;2023-05-16T21:33:50;95585.00;;;11.10
54746;BMP180;40640;48.130;11.356;2023-05-16T21:37:53;95592.00;;;11.10
54746;BMP180;40640;48.130;11.356;2023-05-16T21:41:56;95590.00;;;10.90
54746;BMP180;40640;48.130;11.356;2023-05-16T21:45:59;95597.00;;;10.80
54746;BMP180;40640;48.130;11.356;2023-05-16T21:50:03;95596.00;;;10.90
54746;BMP180;40640;48.130;11.356;2023-05-16T21:54:06;95608.00;;;10.80
54746;BMP180;40640;48.130;11.356;2023-05-16T21:58:09;95617.00;;;10.70
54746;BMP180;40640;48.130;11.356;2023-05-16T22:02:12;95619.00;;;10.80
54746;BMP180;40640;48.130;11.356;2023-05-16T22:06:16;95623.00;;;10.80
54746;BMP180;40640;48.130;11.356;2023-05-16T22:10:19;95629.00;;;10.80
54746;BMP180;40640;48.130;11.356;2023-05-16T22:14:23;95632.00;;;10.90
54746;BMP180;40640;48.130;11.356;2023-05-16T22:18:25;95625.00;;;10.80
54746;BMP180;40640;48.130;11.356;2023-05-16T22:22:30;95632.00;;;10.80
54746;BMP180;40640;48.130;11.356;2023-05-16T22:26:33;95626.00;;;10.70
54746;BMP180;40640;48.130;11.356;2023-05-16T22:30:36;95631.00;;;10.70
54746;BMP180;40640;48.130;11.356;2023-05-16T22:34:39;95644.00;;;10.70
54746;BMP180;40640;48.130;11.356;2023-05-16T22:38:43;95640.00;;;10.70
54746;BMP180;40640;48.130;11.356;2023-05-16T22:42:46;95646.00;;;10.80
54746;BMP180;40640;48.130;11.356;2023-05-16T22:46:49;95650.00;;;10.70
54746;BMP180;40640;48.130;11.356;2023-05-16T22:50:52;95649.00;;;10.60
54746;BMP180;40640;48.130;11.356;2023-05-16T22:54:56;95647.00;;;10.60
54746;BMP180;40640;48.130;11.356;2023-05-16T22:59:00;95644.00;;;10.60
54746;BMP180;40640;48.130;11.356;2023-05-16T23:03:03;95643.00;;;10.60
54746;BMP180;40640;48.130;11.356;2023-05-16T23:07:06;95644.00;;;10.60
54746;BMP180;40640;48.130;11.356;2023-05-16T23:11:11;95643.00;;;10.60